createdAt,value
2024-01-15T00:00:23.897Z,14.93
2024-01-15T00:05:25.912Z,16.10
2024-01-15T00:10:29.026Z,18.63
2024-01-15T00:15:31.342Z,19.77
2024-01-15T00:20:33.336Z,20.03
2024-01-15T00:25:35.180Z,18.27
2024-01-15T00:30:37.127Z,16.80
2024-01-15T00:35:39.101Z,18.63
2024-01-15T00:40:41.055Z,13.40
2024-01-15T00:45:43.500Z,14.83
2024-01-15T00:50:45.396Z,6.17
2024-01-15T00:55:47.252Z,9.40
2024-01-15T01:00:49.301Z,16.77
2024-01-15T01:05:51.348Z,10.67
2024-01-15T01:10:53.180Z,11.30
2024-01-15T01:15:55.094Z,11.60
2024-01-15T01:20:56.988Z,8.90
2024-01-15T01:25:58.872Z,9.40
2024-01-15T01:31:01.224Z,8.87
2024-01-15T01:36:08.939Z,12.20
2024-01-15T01:41:11.473Z,9.07
2024-01-15T01:46:13.380Z,7.90
2024-01-15T01:51:16.005Z,7.03
2024-01-15T01:56:19.405Z,6.87
2024-01-15T02:01:21.775Z,8.00
2024-01-15T02:06:24.868Z,8.57
2024-01-15T02:11:26.856Z,10.60
2024-01-15T02:16:28.660Z,7.17
2024-01-15T02:21:30.940Z,9.67
2024-01-15T02:26:36.975Z,9.30
2024-01-15T02:31:39.374Z,6.23
2024-01-15T02:36:41.326Z,6.63
2024-01-15T02:41:43.240Z,6.07
2024-01-15T02:46:45.085Z,13.53
2024-01-15T02:51:48.004Z,11.03
2024-01-15T02:56:49.864Z,7.60
2024-01-15T03:01:51.767Z,7.67
2024-01-15T03:06:53.720Z,9.37
2024-01-15T03:11:55.603Z,11.30
2024-01-15T03:16:57.445Z,12.77
2024-01-15T03:21:59.374Z,14.17
2024-01-15T03:27:01.674Z,9.70
2024-01-15T03:32:03.922Z,10.30
2024-01-15T03:37:05.943Z,12.63
2024-01-15T03:42:08.365Z,10.53
2024-01-15T03:47:10.428Z,11.77
2024-01-15T03:52:12.278Z,10.97
2024-01-15T03:57:14.096Z,12.17
2024-01-15T04:02:16.067Z,12.53
2024-01-15T04:07:18.039Z,15.00
2024-01-15T04:12:19.995Z,14.93
2024-01-15T04:17:23.005Z,12.00
2024-01-15T04:22:25.080Z,13.17
2024-01-15T04:27:26.941Z,10.83
2024-01-15T04:32:28.815Z,14.07
2024-01-15T04:37:30.671Z,15.20
2024-01-15T04:42:32.628Z,14.23
2024-01-15T04:47:34.844Z,12.80
2024-01-15T04:52:36.735Z,17.80
2024-01-15T04:57:38.658Z,16.47
2024-01-15T05:02:40.611Z,14.97
2024-01-15T05:07:42.579Z,12.70
2024-01-15T05:12:44.470Z,16.23
2024-01-15T05:17:46.508Z,13.70
2024-01-15T05:22:48.495Z,11.87
2024-01-15T05:27:50.527Z,12.43
2024-01-15T05:32:52.577Z,12.27
2024-01-15T05:37:54.483Z,13.63
2024-01-15T05:42:56.418Z,13.30
2024-01-15T05:47:58.386Z,12.63
2024-01-15T05:53:00.300Z,16.47
2024-01-15T05:58:02.163Z,12.03
2024-01-15T06:03:04.122Z,19.10
2024-01-15T06:08:06.178Z,15.00
2024-01-15T06:13:08.115Z,19.57
2024-01-15T06:18:10.153Z,15.70
2024-01-15T06:23:12.211Z,17.00
2024-01-15T06:28:14.214Z,11.67
2024-01-15T06:33:16.218Z,17.33
2024-01-15T06:38:18.152Z,13.60
2024-01-15T06:43:20.024Z,11.13
2024-01-15T06:48:21.979Z,15.13
2024-01-15T06:53:23.929Z,13.90
2024-01-15T06:58:25.851Z,11.67
2024-01-15T07:03:27.877Z,20.97
2024-01-15T07:08:29.834Z,11.23
2024-01-15T07:13:32.101Z,14.70
2024-01-15T07:18:34.148Z,15.73
2024-01-15T07:23:36.167Z,15.90
2024-01-15T07:28:38.116Z,11.83
2024-01-15T07:33:40.088Z,12.43
2024-01-15T07:38:42.046Z,17.43
2024-01-15T07:43:44.068Z,16.77
2024-01-15T07:48:46.107Z,16.03
2024-01-15T07:53:48.206Z,13.43
2024-01-15T07:58:50.085Z,14.17
2024-01-15T08:03:53.407Z,16.83
2024-01-15T08:08:55.426Z,18.30
2024-01-15T08:13:57.537Z,11.87
2024-01-15T08:18:59.639Z,18.70
2024-01-15T08:24:03.317Z,18.50
2024-01-15T08:29:05.267Z,14.87
2024-01-15T08:34:07.769Z,21.37
2024-01-15T08:39:10.407Z,15.47
2024-01-15T08:44:12.577Z,20.10
2024-01-15T08:49:14.717Z,19.57
2024-01-15T08:54:16.766Z,19.13
2024-01-15T08:59:25.652Z,14.30
2024-01-15T09:04:27.805Z,18.93
2024-01-15T09:09:29.904Z,24.00
2024-01-15T09:14:36.743Z,14.30
2024-01-15T09:19:41.083Z,15.77
2024-01-15T09:24:43.351Z,15.93
2024-01-15T09:29:47.162Z,16.07
2024-01-15T09:34:49.508Z,19.97
2024-01-15T09:39:51.651Z,19.90
2024-01-15T09:44:54.176Z,12.67
2024-01-15T09:49:59.208Z,14.40
2024-01-15T09:55:04.577Z,14.07
2024-01-15T10:00:08.529Z,14.63
2024-01-15T10:05:10.937Z,17.13
2024-01-15T10:10:16.018Z,12.00
2024-01-15T11:04:08.166Z,13.43
2024-01-15T11:10:41.368Z,10.20
2024-01-15T11:16:12.736Z,11.73
2024-01-15T16:57:35.667Z,8.07
2024-01-15T22:25:06.778Z,6.23
2024-01-15T22:30:37.926Z,8.30
2024-01-15T22:35:48.436Z,8.37
2024-01-15T22:40:54.576Z,6.10
2024-01-15T22:46:03.550Z,7.30
2024-01-15T22:51:08.243Z,5.60
2024-01-15T22:56:10.492Z,7.67
2024-01-15T23:01:22.977Z,7.40
2024-01-15T23:06:27.940Z,6.70
2024-01-15T23:11:33.749Z,7.50
2024-01-15T23:16:36.420Z,9.00
2024-01-15T23:21:38.623Z,6.40
2024-01-15T23:26:41.725Z,9.60
2024-01-15T23:31:49.623Z,4.40
2024-01-15T23:36:55.624Z,13.53
2024-01-15T23:42:03.690Z,6.17
2024-01-15T23:47:13.415Z,7.90
2024-01-15T23:52:23.463Z,10.23
2024-01-15T23:57:27.927Z,8.87
